sensor_id;sensor_type;location;lat;lon;timestamp;P1;durP1;ratioP1;P2;durP2;ratioP2
68229;SDS011;55048;52.220;5.160;2022-08-14T00:01:53;5.53;;;2.60;;
68229;SDS011;55048;52.220;5.160;2022-08-14T00:04:19;3.78;;;2.42;;
68229;SDS011;55048;52.220;5.160;2022-08-14T00:06:44;5.03;;;3.10;;
68229;SDS011;55048;52.220;5.160;2022-08-14T00:09:10;6.05;;;3.05;;
68229;SDS011;55048;52.220;5.160;2022-08-14T00:11:35;4.65;;;2.70;;
68229;SDS011;55048;52.220;5.160;2022-08-14T00:14:00;5.78;;;2.75;;
68229;SDS011;55048;52.220;5.160;2022-08-14T00:16:27;3.17;;;2.63;;
68229;SDS011;55048;52.220;5.160;2022-08-14T00:18:53;3.83;;;2.70;;
68229;SDS011;55048;52.220;5.160;2022-08-14T00:21:19;2.78;;;2.50;;
68229;SDS011;55048;52.220;5.160;2022-08-14T00:23:44;4.00;;;2.88;;
68229;SDS011;55048;52.220;5.160;2022-08-14T00:26:09;5.80;;;3.05;;
68229;SDS011;55048;52.220;5.160;2022-08-14T00:28:35;6.20;;;3.67;;
68229;SDS011;55048;52.220;5.160;2022-08-14T00:31:00;5.38;;;3.13;;
68229;SDS011;55048;52.220;5.160;2022-08-14T00:33:26;9.48;;;3.17;;
68229;SDS011;55048;52.220;5.160;2022-08-14T00:35:52;6.13;;;2.90;;
68229;SDS011;55048;52.220;5.160;2022-08-14T00:38:19;8.20;;;3.10;;
68229;SDS011;55048;52.220;5.160;2022-08-14T00:40:45;3.53;;;2.90;;
68229;SDS011;55048;52.220;5.160;2022-08-14T00:43:10;6.00;;;3.20;;
68229;SDS011;55048;52.220;5.160;2022-08-14T00:45:36;5.00;;;3.10;;
68229;SDS011;55048;52.220;5.160;2022-08-14T00:48:02;3.75;;;3.17;;
68229;SDS011;55048;52.220;5.160;2022-08-14T00:50:28;3.63;;;3.05;;
68229;SDS011;55048;52.220;5.160;2022-08-14T00:52:55;4.30;;;3.50;;
68229;SDS011;55048;52.220;5.160;2022-08-14T00:55:21;3.33;;;3.03;;
68229;SDS011;55048;52.220;5.160;2022-08-14T00:57:48;4.68;;;2.55;;
68229;SDS011;55048;52.220;5.160;2022-08-14T01:00:32;4.28;;;3.20;;
68229;SDS011;55048;52.220;5.160;2022-08-14T01:02:59;4.18;;;2.88;;
68229;SDS011;55048;52.220;5.160;2022-08-14T01:05:24;7.00;;;3.00;;
68229;SDS011;55048;52.220;5.160;2022-08-14T01:07:51;3.75;;;3.45;;
68229;SDS011;55048;52.220;5.160;2022-08-14T01:10:18;8.48;;;2.92;;
68229;SDS011;55048;52.220;5.160;2022-08-14T01:12:45;5.10;;;3.22;;
68229;SDS011;55048;52.220;5.160;2022-08-14T01:15:13;6.75;;;3.60;;
68229;SDS011;55048;52.220;5.160;2022-08-14T01:17:40;6.07;;;3.45;;
68229;SDS011;55048;52.220;5.160;2022-08-14T01:20:25;7.38;;;3.00;;
68229;SDS011;55048;52.220;5.160;2022-08-14T01:23:13;3.92;;;3.58;;
68229;SDS011;55048;52.220;5.160;2022-08-14T01:25:39;9.07;;;3.35;;
68229;SDS011;55048;52.220;5.160;2022-08-14T01:28:06;5.15;;;3.45;;
68229;SDS011;55048;52.220;5.160;2022-08-14T01:30:32;5.30;;;3.38;;
68229;SDS011;55048;52.220;5.160;2022-08-14T01:33:02;9.20;;;3.20;;
68229;SDS011;55048;52.220;5.160;2022-08-14T01:35:29;8.05;;;3.50;;
68229;SDS011;55048;52.220;5.160;2022-08-14T01:37:55;8.45;;;3.20;;
68229;SDS011;55048;52.220;5.160;2022-08-14T01:40:22;4.70;;;3.50;;
68229;SDS011;55048;52.220;5.160;2022-08-14T01:42:52;12.15;;;3.50;;
68229;SDS011;55048;52.220;5.160;2022-08-14T01:45:20;3.40;;;3.10;;
68229;SDS011;55048;52.220;5.160;2022-08-14T01:47:45;4.80;;;3.60;;
68229;SDS011;55048;52.220;5.160;2022-08-14T01:50:10;11.60;;;4.03;;
68229;SDS011;55048;52.220;5.160;2022-08-14T01:52:36;7.47;;;3.80;;
68229;SDS011;55048;52.220;5.160;2022-08-14T01:55:04;4.25;;;3.45;;
68229;SDS011;55048;52.220;5.160;2022-08-14T01:57:33;6.88;;;3.80;;
68229;SDS011;55048;52.220;5.160;2022-08-14T02:00:02;3.83;;;3.50;;
68229;SDS011;55048;52.220;5.160;2022-08-14T02:02:30;5.35;;;3.55;;
68229;SDS011;55048;52.220;5.160;2022-08-14T02:04:55;4.75;;;3.55;;
68229;SDS011;55048;52.220;5.160;2022-08-14T02:07:21;5.68;;;4.28;;
68229;SDS011;55048;52.220;5.160;2022-08-14T02:09:47;8.73;;;3.80;;
68229;SDS011;55048;52.220;5.160;2022-08-14T02:12:12;6.93;;;4.40;;
68229;SDS011;55048;52.220;5.160;2022-08-14T02:14:37;5.93;;;4.40;;
68229;SDS011;55048;52.220;5.160;2022-08-14T02:17:04;4.95;;;4.10;;
68229;SDS011;55048;52.220;5.160;2022-08-14T02:19:33;6.47;;;4.18;;
68229;SDS011;55048;52.220;5.160;2022-08-14T02:21:59;9.60;;;4.00;;
68229;SDS011;55048;52.220;5.160;2022-08-14T02:24:27;10.50;;;3.70;;
68229;SDS011;55048;52.220;5.160;2022-08-14T02:26:54;6.82;;;4.22;;
68229;SDS011;55048;52.220;5.160;2022-08-14T02:29:24;5.95;;;3.90;;
68229;SDS011;55048;52.220;5.160;2022-08-14T02:31:53;9.88;;;4.47;;
68229;SDS011;55048;52.220;5.160;2022-08-14T02:34:21;8.30;;;4.40;;
68229;SDS011;55048;52.220;5.160;2022-08-14T02:36:54;5.82;;;4.40;;
68229;SDS011;55048;52.220;5.160;2022-08-14T02:39:23;4.93;;;4.47;;
68229;SDS011;55048;52.220;5.160;2022-08-14T02:41:49;6.10;;;4.13;;
68229;SDS011;55048;52.220;5.160;2022-08-14T02:44:16;4.90;;;4.07;;
68229;SDS011;55048;52.220;5.160;2022-08-14T02:46:47;5.78;;;3.65;;
68229;SDS011;55048;52.220;5.160;2022-08-14T02:49:14;12.32;;;5.05;;
68229;SDS011;55048;52.220;5.160;2022-08-14T02:51:40;6.57;;;4.05;;
68229;SDS011;55048;52.220;5.160;2022-08-14T02:54:06;5.15;;;4.32;;
68229;SDS011;55048;52.220;5.160;2022-08-14T02:56:33;5.35;;;4.45;;
68229;SDS011;55048;52.220;5.160;2022-08-14T02:59:02;5.32;;;4.13;;
68229;SDS011;55048;52.220;5.160;2022-08-14T03:01:30;8.60;;;4.50;;
68229;SDS011;55048;52.220;5.160;2022-08-14T03:03:57;11.02;;;4.55;;
68229;SDS011;55048;52.220;5.160;2022-08-14T03:06:23;5.30;;;4.80;;
68229;SDS011;55048;52.220;5.160;2022-08-14T03:08:50;6.28;;;4.70;;
68229;SDS011;55048;52.220;5.160;2022-08-14T03:11:17;5.40;;;4.60;;
68229;SDS011;55048;52.220;5.160;2022-08-14T03:13:43;9.70;;;4.63;;
68229;SDS011;55048;52.220;5.160;2022-08-14T03:16:12;5.72;;;4.80;;
68229;SDS011;55048;52.220;5.160;2022-08-14T03:18:39;5.43;;;4.75;;
68229;SDS011;55048;52.220;5.160;2022-08-14T03:21:07;12.10;;;5.05;;
68229;SDS011;55048;52.220;5.160;2022-08-14T03:23:33;6.65;;;4.75;;
68229;SDS011;55048;52.220;5.160;2022-08-14T03:26:00;5.57;;;4.55;;
68229;SDS011;55048;52.220;5.160;2022-08-14T03:28:28;5.70;;;4.80;;
68229;SDS011;55048;52.220;5.160;2022-08-14T03:30:54;7.88;;;5.28;;
68229;SDS011;55048;52.220;5.160;2022-08-14T03:33:21;6.28;;;4.72;;
68229;SDS011;55048;52.220;5.160;2022-08-14T03:35:47;5.55;;;5.03;;
68229;SDS011;55048;52.220;5.160;2022-08-14T03:38:13;5.82;;;4.65;;
68229;SDS011;55048;52.220;5.160;2022-08-14T03:40:41;8.32;;;5.43;;
68229;SDS011;55048;52.220;5.160;2022-08-14T03:43:07;5.30;;;4.80;;
68229;SDS011;55048;52.220;5.160;2022-08-14T03:45:34;7.18;;;4.72;;
68229;SDS011;55048;52.220;5.160;2022-08-14T03:48:11;5.90;;;5.30;;
68229;SDS011;55048;52.220;5.160;2022-08-14T03:50:40;6.28;;;5.38;;
68229;SDS011;55048;52.220;5.160;2022-08-14T03:53:08;9.27;;;6.07;;
68229;SDS011;55048;52.220;5.160;2022-08-14T03:55:34;6.15;;;5.55;;
68229;SDS011;55048;52.220;5.160;2022-08-14T03:58:00;11.93;;;5.50;;
68229;SDS011;55048;52.220;5.160;2022-08-14T04:00:26;12.65;;;5.10;;
68229;SDS011;55048;52.220;5.160;2022-08-14T04:02:53;6.00;;;4.97;;
68229;SDS011;55048;52.220;5.160;2022-08-14T04:05:18;9.32;;;5.35;;
68229;SDS011;55048;52.220;5.160;2022-08-14T04:07:45;8.82;;;5.72;;
68229;SDS011;55048;52.220;5.160;2022-08-14T04:10:11;10.65;;;5.32;;
68229;SDS011;55048;52.220;5.160;2022-08-14T04:12:36;8.65;;;5.80;;
68229;SDS011;55048;52.220;5.160;2022-08-14T04:15:02;6.15;;;5.55;;
68229;SDS011;55048;52.220;5.160;2022-08-14T04:17:28;8.75;;;5.45;;
68229;SDS011;55048;52.220;5.160;2022-08-14T04:19:54;6.03;;;5.32;;
68229;SDS011;55048;52.220;5.160;2022-08-14T04:22:19;7.72;;;5.82;;
68229;SDS011;55048;52.220;5.160;2022-08-14T04:24:45;8.63;;;5.63;;
68229;SDS011;55048;52.220;5.160;2022-08-14T04:27:11;8.38;;;5.72;;
68229;SDS011;55048;52.220;5.160;2022-08-14T04:29:41;6.38;;;5.70;;
68229;SDS011;55048;52.220;5.160;2022-08-14T04:32:07;10.70;;;5.72;;
68229;SDS011;55048;52.220;5.160;2022-08-14T04:34:34;7.60;;;6.60;;
68229;SDS011;55048;52.220;5.160;2022-08-14T04:37:04;7.15;;;5.70;;
68229;SDS011;55048;52.220;5.160;2022-08-14T04:39:49;9.45;;;5.82;;
68229;SDS011;55048;52.220;5.160;2022-08-14T04:42:34;6.60;;;5.82;;
68229;SDS011;55048;52.220;5.160;2022-08-14T04:45:19;8.07;;;5.55;;
68229;SDS011;55048;52.220;5.160;2022-08-14T04:47:47;12.75;;;6.00;;
68229;SDS011;55048;52.220;5.160;2022-08-14T04:50:31;7.95;;;6.25;;
68229;SDS011;55048;52.220;5.160;2022-08-14T04:52:57;10.02;;;6.18;;
68229;SDS011;55048;52.220;5.160;2022-08-14T04:55:22;7.15;;;6.13;;
68229;SDS011;55048;52.220;5.160;2022-08-14T04:57:47;7.05;;;6.35;;
68229;SDS011;55048;52.220;5.160;2022-08-14T05:00:13;7.78;;;6.10;;
68229;SDS011;55048;52.220;5.160;2022-08-14T05:02:38;9.73;;;6.07;;
68229;SDS011;55048;52.220;5.160;2022-08-14T05:05:04;7.07;;;6.35;;
68229;SDS011;55048;52.220;5.160;2022-08-14T05:07:29;10.10;;;5.72;;
68229;SDS011;55048;52.220;5.160;2022-08-14T05:09:55;8.60;;;5.57;;
68229;SDS011;55048;52.220;5.160;2022-08-14T05:12:21;10.70;;;6.22;;
68229;SDS011;55048;52.220;5.160;2022-08-14T05:14:46;7.55;;;6.60;;
68229;SDS011;55048;52.220;5.160;2022-08-14T05:17:12;10.77;;;6.90;;
68229;SDS011;55048;52.220;5.160;2022-08-14T05:19:37;9.80;;;6.72;;
68229;SDS011;55048;52.220;5.160;2022-08-14T05:22:03;7.03;;;6.32;;
68229;SDS011;55048;52.220;5.160;2022-08-14T05:24:29;8.60;;;6.68;;
68229;SDS011;55048;52.220;5.160;2022-08-14T05:26:55;10.80;;;6.80;;
68229;SDS011;55048;52.220;5.160;2022-08-14T05:29:20;7.50;;;6.40;;
68229;SDS011;55048;52.220;5.160;2022-08-14T05:31:46;8.43;;;6.78;;
68229;SDS011;55048;52.220;5.160;2022-08-14T05:34:11;8.13;;;6.38;;
68229;SDS011;55048;52.220;5.160;2022-08-14T05:36:36;8.30;;;6.97;;
68229;SDS011;55048;52.220;5.160;2022-08-14T05:39:02;9.85;;;6.72;;
68229;SDS011;55048;52.220;5.160;2022-08-14T05:41:28;10.68;;;7.13;;
68229;SDS011;55048;52.220;5.160;2022-08-14T05:43:54;9.73;;;6.95;;
68229;SDS011;55048;52.220;5.160;2022-08-14T05:46:19;9.43;;;6.85;;
68229;SDS011;55048;52.220;5.160;2022-08-14T05:48:51;6.85;;;6.25;;
68229;SDS011;55048;52.220;5.160;2022-08-14T05:51:20;9.30;;;7.38;;
68229;SDS011;55048;52.220;5.160;2022-08-14T05:53:47;7.60;;;6.85;;
68229;SDS011;55048;52.220;5.160;2022-08-14T05:56:12;7.50;;;6.85;;
68229;SDS011;55048;52.220;5.160;2022-08-14T05:58:38;9.57;;;7.20;;
68229;SDS011;55048;52.220;5.160;2022-08-14T06:01:03;19.27;;;7.85;;
68229;SDS011;55048;52.220;5.160;2022-08-14T06:03:29;9.63;;;6.82;;
68229;SDS011;55048;52.220;5.160;2022-08-14T06:05:55;12.88;;;7.15;;
68229;SDS011;55048;52.220;5.160;2022-08-14T06:10:51;16.85;;;6.63;;
68229;SDS011;55048;52.220;5.160;2022-08-14T06:13:18;12.73;;;7.28;;
68229;SDS011;55048;52.220;5.160;2022-08-14T06:15:47;7.38;;;6.68;;
68229;SDS011;55048;52.220;5.160;2022-08-14T06:18:16;11.63;;;7.22;;
68229;SDS011;55048;52.220;5.160;2022-08-14T06:20:42;11.07;;;6.93;;
68229;SDS011;55048;52.220;5.160;2022-08-14T06:23:08;7.63;;;6.93;;
68229;SDS011;55048;52.220;5.160;2022-08-14T06:25:33;11.93;;;7.65;;
68229;SDS011;55048;52.220;5.160;2022-08-14T06:27:59;14.13;;;7.10;;
68229;SDS011;55048;52.220;5.160;2022-08-14T06:30:25;10.82;;;7.90;;
68229;SDS011;55048;52.220;5.160;2022-08-14T06:32:53;9.73;;;7.13;;
68229;SDS011;55048;52.220;5.160;2022-08-14T06:35:19;16.42;;;7.35;;
68229;SDS011;55048;52.220;5.160;2022-08-14T06:40:17;7.40;;;6.68;;
68229;SDS011;55048;52.220;5.160;2022-08-14T06:42:45;7.53;;;6.72;;
68229;SDS011;55048;52.220;5.160;2022-08-14T06:45:11;7.57;;;6.80;;
68229;SDS011;55048;52.220;5.160;2022-08-14T06:47:37;8.77;;;7.07;;
68229;SDS011;55048;52.220;5.160;2022-08-14T06:50:08;6.93;;;6.22;;
68229;SDS011;55048;52.220;5.160;2022-08-14T06:52:36;8.50;;;6.30;;
68229;SDS011;55048;52.220;5.160;2022-08-14T06:55:05;11.93;;;6.00;;
68229;SDS011;55048;52.220;5.160;2022-08-14T06:57:36;11.55;;;6.22;;
68229;SDS011;55048;52.220;5.160;2022-08-14T07:00:14;8.75;;;5.93;;
68229;SDS011;55048;52.220;5.160;2022-08-14T07:02:50;10.10;;;6.13;;
68229;SDS011;55048;52.220;5.160;2022-08-14T07:05:34;10.07;;;6.07;;
68229;SDS011;55048;52.220;5.160;2022-08-14T07:08:17;6.00;;;5.40;;
68229;SDS011;55048;52.220;5.160;2022-08-14T07:10:45;10.30;;;6.07;;
68229;SDS011;55048;52.220;5.160;2022-08-14T07:13:11;12.30;;;6.13;;
68229;SDS011;55048;52.220;5.160;2022-08-14T07:15:38;6.63;;;5.93;;
68229;SDS011;55048;52.220;5.160;2022-08-14T07:18:06;9.70;;;6.45;;
68229;SDS011;55048;52.220;5.160;2022-08-14T07:20:33;8.20;;;5.80;;
68229;SDS011;55048;52.220;5.160;2022-08-14T07:23:00;11.10;;;5.47;;
68229;SDS011;55048;52.220;5.160;2022-08-14T07:25:26;7.35;;;5.80;;
68229;SDS011;55048;52.220;5.160;2022-08-14T07:27:53;8.30;;;5.32;;
68229;SDS011;55048;52.220;5.160;2022-08-14T07:30:19;8.13;;;5.43;;
68229;SDS011;55048;52.220;5.160;2022-08-14T07:32:44;10.82;;;5.53;;
68229;SDS011;55048;52.220;5.160;2022-08-14T07:35:10;14.40;;;5.55;;
68229;SDS011;55048;52.220;5.160;2022-08-14T07:37:36;8.77;;;4.88;;
68229;SDS011;55048;52.220;5.160;2022-08-14T07:40:02;7.45;;;4.88;;
68229;SDS011;55048;52.220;5.160;2022-08-14T07:42:28;9.70;;;4.20;;
68229;SDS011;55048;52.220;5.160;2022-08-14T07:44:55;4.53;;;4.10;;
68229;SDS011;55048;52.220;5.160;2022-08-14T07:47:21;8.35;;;5.13;;
68229;SDS011;55048;52.220;5.160;2022-08-14T07:49:50;9.32;;;4.97;;
68229;SDS011;55048;52.220;5.160;2022-08-14T07:52:29;6.72;;;4.68;;
68229;SDS011;55048;52.220;5.160;2022-08-14T07:54:55;5.90;;;4.40;;
68229;SDS011;55048;52.220;5.160;2022-08-14T07:57:21;7.43;;;4.28;;
68229;SDS011;55048;52.220;5.160;2022-08-14T07:59:46;7.40;;;4.00;;
68229;SDS011;55048;52.220;5.160;2022-08-14T08:02:13;7.80;;;4.22;;
68229;SDS011;55048;52.220;5.160;2022-08-14T08:04:42;10.88;;;4.03;;
68229;SDS011;55048;52.220;5.160;2022-08-14T08:07:09;10.17;;;3.77;;
68229;SDS011;55048;52.220;5.160;2022-08-14T08:09:35;7.78;;;3.80;;
68229;SDS011;55048;52.220;5.160;2022-08-14T08:12:01;5.85;;;3.47;;
68229;SDS011;55048;52.220;5.160;2022-08-14T08:14:27;5.88;;;3.70;;
68229;SDS011;55048;52.220;5.160;2022-08-14T08:16:55;10.80;;;3.80;;
68229;SDS011;55048;52.220;5.160;2022-08-14T08:19:21;10.32;;;5.00;;
68229;SDS011;55048;52.220;5.160;2022-08-14T08:21:46;11.20;;;4.00;;
68229;SDS011;55048;52.220;5.160;2022-08-14T08:24:12;5.40;;;3.88;;
68229;SDS011;55048;52.220;5.160;2022-08-14T08:26:37;9.90;;;3.75;;
68229;SDS011;55048;52.220;5.160;2022-08-14T08:29:02;62.83;;;4.35;;
68229;SDS011;55048;52.220;5.160;2022-08-14T08:31:28;9.20;;;3.83;;
68229;SDS011;55048;52.220;5.160;2022-08-14T08:33:55;12.23;;;4.30;;
68229;SDS011;55048;52.220;5.160;2022-08-14T08:36:21;8.48;;;4.72;;
68229;SDS011;55048;52.220;5.160;2022-08-14T08:38:47;39.53;;;5.40;;
68229;SDS011;55048;52.220;5.160;2022-08-14T08:41:13;8.18;;;4.60;;
68229;SDS011;55048;52.220;5.160;2022-08-14T08:43:39;21.65;;;4.55;;
68229;SDS011;55048;52.220;5.160;2022-08-14T08:46:06;5.60;;;4.53;;
68229;SDS011;55048;52.220;5.160;2022-08-14T08:48:43;4.40;;;3.95;;
68229;SDS011;55048;52.220;5.160;2022-08-14T08:51:19;8.15;;;4.18;;
68229;SDS011;55048;52.220;5.160;2022-08-14T08:56:38;6.35;;;3.97;;
68229;SDS011;55048;52.220;5.160;2022-08-14T08:59:48;13.48;;;3.72;;
68229;SDS011;55048;52.220;5.160;2022-08-14T09:07:05;5.07;;;3.97;;
68229;SDS011;55048;52.220;5.160;2022-08-14T09:09:31;6.85;;;4.07;;
68229;SDS011;55048;52.220;5.160;2022-08-14T09:11:59;10.45;;;3.70;;
68229;SDS011;55048;52.220;5.160;2022-08-14T09:14:27;18.77;;;4.23;;
68229;SDS011;55048;52.220;5.160;2022-08-14T09:16:55;7.80;;;3.88;;
68229;SDS011;55048;52.220;5.160;2022-08-14T09:19:22;8.73;;;3.72;;
68229;SDS011;55048;52.220;5.160;2022-08-14T09:21:47;10.00;;;4.10;;
68229;SDS011;55048;52.220;5.160;2022-08-14T09:24:13;4.38;;;3.45;;
68229;SDS011;55048;52.220;5.160;2022-08-14T09:26:39;8.32;;;3.30;;
68229;SDS011;55048;52.220;5.160;2022-08-14T09:29:06;4.80;;;3.13;;
68229;SDS011;55048;52.220;5.160;2022-08-14T09:31:34;5.15;;;3.40;;
68229;SDS011;55048;52.220;5.160;2022-08-14T09:34:21;6.60;;;3.63;;
68229;SDS011;55048;52.220;5.160;2022-08-14T09:39:51;4.40;;;3.22;;
68229;SDS011;55048;52.220;5.160;2022-08-14T09:45:32;4.60;;;3.50;;
68229;SDS011;55048;52.220;5.160;2022-08-14T09:48:00;6.53;;;2.83;;
68229;SDS011;55048;52.220;5.160;2022-08-14T09:50:30;6.60;;;2.85;;
68229;SDS011;55048;52.220;5.160;2022-08-14T09:53:01;4.10;;;3.08;;
68229;SDS011;55048;52.220;5.160;2022-08-14T09:55:32;4.00;;;2.60;;
68229;SDS011;55048;52.220;5.160;2022-08-14T10:03:12;7.72;;;3.22;;
68229;SDS011;55048;52.220;5.160;2022-08-14T10:05:48;3.55;;;2.90;;
68229;SDS011;55048;52.220;5.160;2022-08-14T10:08:18;5.93;;;2.97;;
68229;SDS011;55048;52.220;5.160;2022-08-14T10:10:45;5.30;;;3.10;;
68229;SDS011;55048;52.220;5.160;2022-08-14T10:13:24;6.05;;;3.00;;
68229;SDS011;55048;52.220;5.160;2022-08-14T10:15:50;4.80;;;2.70;;
68229;SDS011;55048;52.220;5.160;2022-08-14T10:18:25;3.40;;;3.10;;
68229;SDS011;55048;52.220;5.160;2022-08-14T10:20:55;5.15;;;2.60;;
68229;SDS011;55048;52.220;5.160;2022-08-14T10:23:23;3.83;;;2.78;;
68229;SDS011;55048;52.220;5.160;2022-08-14T10:26:02;4.97;;;2.78;;
68229;SDS011;55048;52.220;5.160;2022-08-14T10:33:41;4.55;;;2.60;;
68229;SDS011;55048;52.220;5.160;2022-08-14T10:36:06;5.72;;;2.67;;
68229;SDS011;55048;52.220;5.160;2022-08-14T10:38:33;5.30;;;2.80;;
68229;SDS011;55048;52.220;5.160;2022-08-14T10:41:09;5.03;;;2.78;;
68229;SDS011;55048;52.220;5.160;2022-08-14T10:43:39;4.90;;;2.60;;
68229;SDS011;55048;52.220;5.160;2022-08-14T10:46:13;5.88;;;2.80;;
68229;SDS011;55048;52.220;5.160;2022-08-14T10:48:41;6.13;;;2.70;;
68229;SDS011;55048;52.220;5.160;2022-08-14T10:51:25;7.35;;;2.97;;
68229;SDS011;55048;52.220;5.160;2022-08-14T10:53:55;4.15;;;2.60;;
68229;SDS011;55048;52.220;5.160;2022-08-14T10:56:31;4.28;;;2.78;;
68229;SDS011;55048;52.220;5.160;2022-08-14T10:59:03;76.50;;;4.22;;
68229;SDS011;55048;52.220;5.160;2022-08-14T11:01:30;13.00;;;3.20;;
68229;SDS011;55048;52.220;5.160;2022-08-14T11:03:57;4.00;;;2.50;;
68229;SDS011;55048;52.220;5.160;2022-08-14T11:06:22;4.05;;;2.40;;
68229;SDS011;55048;52.220;5.160;2022-08-14T11:08:48;2.58;;;2.13;;
68229;SDS011;55048;52.220;5.160;2022-08-14T11:11:14;2.10;;;1.70;;
68229;SDS011;55048;52.220;5.160;2022-08-14T11:13:42;6.75;;;2.08;;
68229;SDS011;55048;52.220;5.160;2022-08-14T11:16:11;3.60;;;2.40;;
68229;SDS011;55048;52.220;5.160;2022-08-14T11:18:39;2.33;;;2.13;;
68229;SDS011;55048;52.220;5.160;2022-08-14T11:21:27;2.70;;;1.83;;
68229;SDS011;55048;52.220;5.160;2022-08-14T11:23:53;4.03;;;1.90;;
68229;SDS011;55048;52.220;5.160;2022-08-14T11:26:22;5.13;;;1.60;;
68229;SDS011;55048;52.220;5.160;2022-08-14T11:28:51;4.38;;;2.00;;
68229;SDS011;55048;52.220;5.160;2022-08-14T11:31:21;3.95;;;1.83;;
68229;SDS011;55048;52.220;5.160;2022-08-14T11:33:51;4.18;;;2.30;;
68229;SDS011;55048;52.220;5.160;2022-08-14T11:36:22;6.85;;;1.70;;
68229;SDS011;55048;52.220;5.160;2022-08-14T11:38:52;2.95;;;1.60;;
68229;SDS011;55048;52.220;5.160;2022-08-14T11:41:18;2.15;;;1.65;;
68229;SDS011;55048;52.220;5.160;2022-08-14T11:43:45;6.00;;;1.77;;
68229;SDS011;55048;52.220;5.160;2022-08-14T11:46:12;3.42;;;1.80;;
68229;SDS011;55048;52.220;5.160;2022-08-14T11:48:43;3.83;;;1.70;;
68229;SDS011;55048;52.220;5.160;2022-08-14T11:51:14;2.35;;;1.70;;
68229;SDS011;55048;52.220;5.160;2022-08-14T11:53:41;6.20;;;1.80;;
68229;SDS011;55048;52.220;5.160;2022-08-14T11:56:07;2.45;;;1.90;;
68229;SDS011;55048;52.220;5.160;2022-08-14T11:58:34;8.55;;;1.58;;
68229;SDS011;55048;52.220;5.160;2022-08-14T12:01:01;5.80;;;1.70;;
68229;SDS011;55048;52.220;5.160;2022-08-14T12:03:39;3.65;;;1.65;;
68229;SDS011;55048;52.220;5.160;2022-08-14T12:06:15;7.47;;;1.85;;
68229;SDS011;55048;52.220;5.160;2022-08-14T12:08:42;2.70;;;1.80;;
68229;SDS011;55048;52.220;5.160;2022-08-14T12:11:11;2.00;;;1.60;;
68229;SDS011;55048;52.220;5.160;2022-08-14T12:13:39;4.30;;;1.65;;
68229;SDS011;55048;52.220;5.160;2022-08-14T12:16:08;3.72;;;1.60;;
68229;SDS011;55048;52.220;5.160;2022-08-14T12:18:37;3.90;;;1.52;;
68229;SDS011;55048;52.220;5.160;2022-08-14T12:23:36;5.32;;;1.40;;
68229;SDS011;55048;52.220;5.160;2022-08-14T12:26:05;6.50;;;1.50;;
68229;SDS011;55048;52.220;5.160;2022-08-14T12:28:38;6.70;;;1.80;;
68229;SDS011;55048;52.220;5.160;2022-08-14T12:31:10;2.25;;;1.35;;
68229;SDS011;55048;52.220;5.160;2022-08-14T12:33:40;4.75;;;1.40;;
68229;SDS011;55048;52.220;5.160;2022-08-14T12:36:07;1.98;;;1.38;;
68229;SDS011;55048;52.220;5.160;2022-08-14T12:38:41;5.90;;;1.40;;
68229;SDS011;55048;52.220;5.160;2022-08-14T12:41:08;5.25;;;1.70;;
68229;SDS011;55048;52.220;5.160;2022-08-14T12:43:49;5.85;;;1.60;;
68229;SDS011;55048;52.220;5.160;2022-08-14T12:48:53;1.90;;;1.50;;
68229;SDS011;55048;52.220;5.160;2022-08-14T12:51:19;2.55;;;1.30;;
68229;SDS011;55048;52.220;5.160;2022-08-14T12:53:47;3.78;;;1.40;;
68229;SDS011;55048;52.220;5.160;2022-08-14T12:56:17;2.60;;;1.27;;
68229;SDS011;55048;52.220;5.160;2022-08-14T12:58:51;5.95;;;1.65;;
68229;SDS011;55048;52.220;5.160;2022-08-14T13:01:22;7.05;;;1.85;;
68229;SDS011;55048;52.220;5.160;2022-08-14T13:04:05;4.90;;;1.88;;
68229;SDS011;55048;52.220;5.160;2022-08-14T13:06:34;2.00;;;1.90;;
68229;SDS011;55048;52.220;5.160;2022-08-14T13:09:02;2.47;;;2.00;;
68229;SDS011;55048;52.220;5.160;2022-08-14T13:11:35;4.25;;;1.80;;
68229;SDS011;55048;52.220;5.160;2022-08-14T13:14:00;2.05;;;1.70;;
68229;SDS011;55048;52.220;5.160;2022-08-14T13:16:27;3.45;;;1.92;;
68229;SDS011;55048;52.220;5.160;2022-08-14T13:18:53;7.05;;;2.25;;
68229;SDS011;55048;52.220;5.160;2022-08-14T13:21:22;3.30;;;1.70;;
68229;SDS011;55048;52.220;5.160;2022-08-14T13:23:50;5.22;;;1.67;;
68229;SDS011;55048;52.220;5.160;2022-08-14T13:26:16;2.47;;;1.60;;
68229;SDS011;55048;52.220;5.160;2022-08-14T13:28:42;1.85;;;1.60;;
68229;SDS011;55048;52.220;5.160;2022-08-14T13:31:09;2.63;;;1.90;;
68229;SDS011;55048;52.220;5.160;2022-08-14T13:33:39;4.20;;;1.92;;
68229;SDS011;55048;52.220;5.160;2022-08-14T13:36:04;2.10;;;1.70;;
68229;SDS011;55048;52.220;5.160;2022-08-14T13:38:30;3.58;;;2.05;;
68229;SDS011;55048;52.220;5.160;2022-08-14T13:40:56;3.60;;;1.83;;
68229;SDS011;55048;52.220;5.160;2022-08-14T13:43:22;2.63;;;1.77;;
68229;SDS011;55048;52.220;5.160;2022-08-14T13:45:49;7.15;;;1.80;;
68229;SDS011;55048;52.220;5.160;2022-08-14T13:48:20;2.53;;;1.90;;
68229;SDS011;55048;52.220;5.160;2022-08-14T13:50:51;3.20;;;1.90;;
68229;SDS011;55048;52.220;5.160;2022-08-14T13:53:19;2.45;;;2.03;;
68229;SDS011;55048;52.220;5.160;2022-08-14T13:55:47;4.93;;;1.80;;
68229;SDS011;55048;52.220;5.160;2022-08-14T13:58:15;3.78;;;1.92;;
68229;SDS011;55048;52.220;5.160;2022-08-14T14:00:43;4.45;;;2.00;;
68229;SDS011;55048;52.220;5.160;2022-08-14T14:03:11;5.65;;;2.05;;
68229;SDS011;55048;52.220;5.160;2022-08-14T14:05:37;3.72;;;1.90;;
68229;SDS011;55048;52.220;5.160;2022-08-14T14:08:03;2.13;;;1.73;;
68229;SDS011;55048;52.220;5.160;2022-08-14T14:10:31;4.72;;;2.08;;
68229;SDS011;55048;52.220;5.160;2022-08-14T14:13:01;8.68;;;2.67;;
68229;SDS011;55048;52.220;5.160;2022-08-14T14:15:30;3.38;;;2.10;;
68229;SDS011;55048;52.220;5.160;2022-08-14T14:17:55;4.95;;;1.90;;
68229;SDS011;55048;52.220;5.160;2022-08-14T14:20:23;2.53;;;1.98;;
68229;SDS011;55048;52.220;5.160;2022-08-14T14:22:49;2.30;;;1.73;;
68229;SDS011;55048;52.220;5.160;2022-08-14T14:25:16;2.10;;;1.67;;
68229;SDS011;55048;52.220;5.160;2022-08-14T14:27:44;3.67;;;1.77;;
68229;SDS011;55048;52.220;5.160;2022-08-14T14:30:11;2.25;;;1.92;;
68229;SDS011;55048;52.220;5.160;2022-08-14T14:32:39;6.28;;;2.42;;
68229;SDS011;55048;52.220;5.160;2022-08-14T14:35:08;4.25;;;2.35;;
68229;SDS011;55048;52.220;5.160;2022-08-14T14:37:40;2.95;;;2.30;;
68229;SDS011;55048;52.220;5.160;2022-08-14T14:40:07;4.22;;;2.10;;
68229;SDS011;55048;52.220;5.160;2022-08-14T14:42:36;6.18;;;2.00;;
68229;SDS011;55048;52.220;5.160;2022-08-14T14:45:13;4.25;;;2.33;;
68229;SDS011;55048;52.220;5.160;2022-08-14T14:47:41;6.07;;;2.72;;
68229;SDS011;55048;52.220;5.160;2022-08-14T14:50:08;5.43;;;2.08;;
68229;SDS011;55048;52.220;5.160;2022-08-14T14:52:35;8.02;;;2.63;;
68229;SDS011;55048;52.220;5.160;2022-08-14T14:55:01;4.75;;;2.72;;
68229;SDS011;55048;52.220;5.160;2022-08-14T14:57:28;4.68;;;2.30;;
68229;SDS011;55048;52.220;5.160;2022-08-14T14:59:55;4.78;;;2.45;;
68229;SDS011;55048;52.220;5.160;2022-08-14T15:02:34;4.40;;;2.40;;
68229;SDS011;55048;52.220;5.160;2022-08-14T15:05:01;2.97;;;2.17;;
68229;SDS011;55048;52.220;5.160;2022-08-14T15:07:30;3.10;;;2.45;;
68229;SDS011;55048;52.220;5.160;2022-08-14T15:09:56;2.78;;;2.50;;
68229;SDS011;55048;52.220;5.160;2022-08-14T15:12:22;7.65;;;2.03;;
68229;SDS011;55048;52.220;5.160;2022-08-14T15:14:47;5.05;;;2.55;;
68229;SDS011;55048;52.220;5.160;2022-08-14T15:17:13;3.35;;;2.15;;
68229;SDS011;55048;52.220;5.160;2022-08-14T15:19:38;5.35;;;2.67;;
68229;SDS011;55048;52.220;5.160;2022-08-14T15:22:06;4.43;;;2.47;;
68229;SDS011;55048;52.220;5.160;2022-08-14T15:24:32;8.35;;;2.53;;
68229;SDS011;55048;52.220;5.160;2022-08-14T15:26:58;4.07;;;2.10;;